Aérodrome :
LOGIN :

S'inscrire | Disclaimer

   EN    FR    IT 

 










Légende :    VFR   VFR Marginal   IFR   IFR Intensif   IFR Très Intensif
Visi : 
Plafond : 
>= 8 km
>= 3000ft
5 à 8 km
1000 à 3000 ft
1500m à 5 km
500 à 1000 ft
800 à 1500m
200 à 500 ft
< 800m
< 200 ft
Symboles :   Orages  Brouillard  Fortes neiges  Fortes précipitations  Vent > 20 kt
SIGMETs :   Divers  Orages  Givrage  Turbulence  Onde Orograph.  Cendres Volcan.






- Altitude de l'aérodrome : 81 ft
- Code IATA : SCS


EGPM - Scatsta

DERNIER METAR :
  • 180520Z 26003KT 9999 FEW015 06/05 Q1000

METARs EXPIRÉS :
  • 180450Z VRB01KT 9999 FEW015 06/05 Q1000
  • 180420Z AUTO 15008KT 9999 NCD 08/07 Q1000
  • 180350Z AUTO 16008KT 9999 NCD 08/07 Q1000
  • 180320Z AUTO 16009KT 9999 NCD 08/07 Q1000

TAF TAF EGPM
Valide du 18 à 06h jusqu'au 18 à 15h UTC


180454Z 1806/1815 15009KT 9999 FEW030
BECMG 1806/1809 07010KT
PROB30
TEMPO 1806/1807 BKN012



MET'MAP, la Météo Aéronautique d'un coup d'oeil ! - Copyright ORBIFLY Décembre 2007 - Disclaimer

ORBIFLY MET'MAP TEAM :

Programmation & Développement : Alexandra Zaïnal
Conception & Développement : Baudouin d'Aumeries
Co-Programmation & Développement : Marc-Olivier Méhu
Soutien technique & logistique : Manuel Goepfert

Contact : metmap@orbifly.com




SOURCES & CREDITS :

   NOAA